sensor_id;sensor_type;location;lat;lon;timestamp;P1;durP1;ratioP1;P2;durP2;ratioP2
6344;SDS011;3205;42.666;23.264;2022-10-16T00:01:49;18.37;;;10.40;;
6344;SDS011;3205;42.666;23.264;2022-10-16T00:04:15;18.27;;;10.63;;
6344;SDS011;3205;42.666;23.264;2022-10-16T00:06:42;15.70;;;10.87;;
6344;SDS011;3205;42.666;23.264;2022-10-16T00:09:09;17.90;;;10.97;;
6344;SDS011;3205;42.666;23.264;2022-10-16T00:11:38;20.00;;;10.43;;
6344;SDS011;3205;42.666;23.264;2022-10-16T00:14:07;15.00;;;10.27;;
6344;SDS011;3205;42.666;23.264;2022-10-16T00:16:37;15.43;;;10.10;;
6344;SDS011;3205;42.666;23.264;2022-10-16T00:19:04;14.57;;;9.63;;
6344;SDS011;3205;42.666;23.264;2022-10-16T00:21:32;15.93;;;10.13;;
6344;SDS011;3205;42.666;23.264;2022-10-16T00:24:00;14.97;;;10.13;;
6344;SDS011;3205;42.666;23.264;2022-10-16T00:26:28;13.73;;;10.07;;
6344;SDS011;3205;42.666;23.264;2022-10-16T00:28:58;16.23;;;10.07;;
6344;SDS011;3205;42.666;23.264;2022-10-16T00:31:25;15.07;;;9.83;;
6344;SDS011;3205;42.666;23.264;2022-10-16T00:33:52;13.60;;;9.27;;
6344;SDS011;3205;42.666;23.264;2022-10-16T00:36:19;13.77;;;9.10;;
6344;SDS011;3205;42.666;23.264;2022-10-16T00:38:49;15.37;;;8.93;;
6344;SDS011;3205;42.666;23.264;2022-10-16T00:41:20;15.37;;;8.73;;
6344;SDS011;3205;42.666;23.264;2022-10-16T00:43:48;12.90;;;9.43;;
6344;SDS011;3205;42.666;23.264;2022-10-16T00:46:19;14.70;;;9.80;;
6344;SDS011;3205;42.666;23.264;2022-10-16T00:48:48;14.20;;;8.93;;
6344;SDS011;3205;42.666;23.264;2022-10-16T00:51:18;13.17;;;9.30;;
6344;SDS011;3205;42.666;23.264;2022-10-16T00:53:47;14.23;;;9.37;;
6344;SDS011;3205;42.666;23.264;2022-10-16T00:56:15;16.13;;;9.53;;
6344;SDS011;3205;42.666;23.264;2022-10-16T00:58:42;22.90;;;10.10;;
6344;SDS011;3205;42.666;23.264;2022-10-16T01:01:10;18.60;;;10.40;;
6344;SDS011;3205;42.666;23.264;2022-10-16T01:03:38;14.53;;;9.70;;
6344;SDS011;3205;42.666;23.264;2022-10-16T01:06:08;12.83;;;9.63;;
6344;SDS011;3205;42.666;23.264;2022-10-16T01:08:45;13.60;;;9.90;;
6344;SDS011;3205;42.666;23.264;2022-10-16T01:11:21;13.43;;;9.03;;
6344;SDS011;3205;42.666;23.264;2022-10-16T01:13:53;14.63;;;9.50;;
6344;SDS011;3205;42.666;23.264;2022-10-16T01:16:27;13.40;;;9.40;;
6344;SDS011;3205;42.666;23.264;2022-10-16T01:19:01;17.00;;;9.60;;
6344;SDS011;3205;42.666;23.264;2022-10-16T01:21:36;16.17;;;9.73;;
6344;SDS011;3205;42.666;23.264;2022-10-16T01:24:07;19.40;;;9.67;;
6344;SDS011;3205;42.666;23.264;2022-10-16T01:26:49;16.27;;;9.97;;
6344;SDS011;3205;42.666;23.264;2022-10-16T01:29:28;18.70;;;10.10;;
6344;SDS011;3205;42.666;23.264;2022-10-16T01:32:02;20.23;;;10.37;;
6344;SDS011;3205;42.666;23.264;2022-10-16T01:34:40;17.23;;;9.83;;
6344;SDS011;3205;42.666;23.264;2022-10-16T01:37:14;15.23;;;9.43;;
6344;SDS011;3205;42.666;23.264;2022-10-16T01:39:47;21.17;;;10.53;;
6344;SDS011;3205;42.666;23.264;2022-10-16T01:42:19;13.10;;;9.63;;
6344;SDS011;3205;42.666;23.264;2022-10-16T01:44:50;16.27;;;9.43;;
6344;SDS011;3205;42.666;23.264;2022-10-16T01:47:18;18.47;;;10.23;;
6344;SDS011;3205;42.666;23.264;2022-10-16T01:49:50;16.60;;;10.33;;
6344;SDS011;3205;42.666;23.264;2022-10-16T01:52:20;13.10;;;9.10;;
6344;SDS011;3205;42.666;23.264;2022-10-16T01:54:52;17.37;;;9.70;;
6344;SDS011;3205;42.666;23.264;2022-10-16T01:57:24;17.53;;;9.70;;
6344;SDS011;3205;42.666;23.264;2022-10-16T01:59:53;13.20;;;8.67;;
6344;SDS011;3205;42.666;23.264;2022-10-16T02:02:22;14.30;;;8.63;;
6344;SDS011;3205;42.666;23.264;2022-10-16T02:04:55;14.83;;;8.83;;
6344;SDS011;3205;42.666;23.264;2022-10-16T02:07:26;13.20;;;8.97;;
6344;SDS011;3205;42.666;23.264;2022-10-16T02:09:53;14.30;;;8.93;;
6344;SDS011;3205;42.666;23.264;2022-10-16T02:12:23;13.90;;;8.70;;
6344;SDS011;3205;42.666;23.264;2022-10-16T02:14:54;15.30;;;8.83;;
6344;SDS011;3205;42.666;23.264;2022-10-16T02:17:22;15.77;;;9.00;;
6344;SDS011;3205;42.666;23.264;2022-10-16T02:19:49;14.97;;;9.43;;
6344;SDS011;3205;42.666;23.264;2022-10-16T02:22:21;14.30;;;9.43;;
6344;SDS011;3205;42.666;23.264;2022-10-16T02:24:54;13.30;;;9.47;;
6344;SDS011;3205;42.666;23.264;2022-10-16T02:27:25;16.63;;;9.87;;
6344;SDS011;3205;42.666;23.264;2022-10-16T02:30:00;14.07;;;8.07;;
6344;SDS011;3205;42.666;23.264;2022-10-16T02:32:33;16.07;;;9.73;;
6344;SDS011;3205;42.666;23.264;2022-10-16T02:35:03;16.50;;;9.50;;
6344;SDS011;3205;42.666;23.264;2022-10-16T02:37:31;13.40;;;8.53;;
6344;SDS011;3205;42.666;23.264;2022-10-16T02:39:59;16.10;;;8.83;;
6344;SDS011;3205;42.666;23.264;2022-10-16T02:42:31;12.70;;;8.93;;
6344;SDS011;3205;42.666;23.264;2022-10-16T02:45:00;17.50;;;9.67;;
6344;SDS011;3205;42.666;23.264;2022-10-16T02:47:27;16.73;;;9.87;;
6344;SDS011;3205;42.666;23.264;2022-10-16T02:49:54;13.97;;;9.10;;
6344;SDS011;3205;42.666;23.264;2022-10-16T02:52:20;15.83;;;9.13;;
6344;SDS011;3205;42.666;23.264;2022-10-16T02:54:47;11.70;;;8.50;;
6344;SDS011;3205;42.666;23.264;2022-10-16T02:57:14;15.30;;;8.87;;
6344;SDS011;3205;42.666;23.264;2022-10-16T02:59:42;17.20;;;9.20;;
6344;SDS011;3205;42.666;23.264;2022-10-16T03:02:09;14.07;;;8.60;;
6344;SDS011;3205;42.666;23.264;2022-10-16T03:04:36;13.87;;;9.27;;
6344;SDS011;3205;42.666;23.264;2022-10-16T03:07:04;14.30;;;8.67;;
6344;SDS011;3205;42.666;23.264;2022-10-16T03:09:30;10.23;;;7.90;;
6344;SDS011;3205;42.666;23.264;2022-10-16T03:11:57;15.40;;;8.23;;
6344;SDS011;3205;42.666;23.264;2022-10-16T03:14:24;11.00;;;7.97;;
6344;SDS011;3205;42.666;23.264;2022-10-16T03:16:52;12.57;;;8.50;;
6344;SDS011;3205;42.666;23.264;2022-10-16T03:19:19;13.13;;;8.17;;
6344;SDS011;3205;42.666;23.264;2022-10-16T03:21:46;14.53;;;8.90;;
6344;SDS011;3205;42.666;23.264;2022-10-16T03:24:13;18.17;;;9.20;;
6344;SDS011;3205;42.666;23.264;2022-10-16T03:26:40;14.93;;;8.70;;
6344;SDS011;3205;42.666;23.264;2022-10-16T03:29:07;13.50;;;8.63;;
6344;SDS011;3205;42.666;23.264;2022-10-16T03:31:34;15.30;;;9.43;;
6344;SDS011;3205;42.666;23.264;2022-10-16T03:34:02;13.43;;;8.33;;
6344;SDS011;3205;42.666;23.264;2022-10-16T03:36:29;13.13;;;8.67;;
6344;SDS011;3205;42.666;23.264;2022-10-16T03:38:56;19.47;;;9.53;;
6344;SDS011;3205;42.666;23.264;2022-10-16T03:41:23;15.87;;;9.73;;
6344;SDS011;3205;42.666;23.264;2022-10-16T03:43:50;18.37;;;10.57;;
6344;SDS011;3205;42.666;23.264;2022-10-16T03:46:16;18.67;;;10.90;;
6344;SDS011;3205;42.666;23.264;2022-10-16T03:48:43;18.90;;;10.97;;
6344;SDS011;3205;42.666;23.264;2022-10-16T03:51:12;18.30;;;10.40;;
6344;SDS011;3205;42.666;23.264;2022-10-16T03:53:38;19.07;;;10.10;;
6344;SDS011;3205;42.666;23.264;2022-10-16T03:56:05;17.40;;;10.63;;
6344;SDS011;3205;42.666;23.264;2022-10-16T03:58:32;21.93;;;10.30;;
6344;SDS011;3205;42.666;23.264;2022-10-16T04:00:59;20.40;;;10.30;;
6344;SDS011;3205;42.666;23.264;2022-10-16T04:03:26;21.63;;;10.53;;
6344;SDS011;3205;42.666;23.264;2022-10-16T04:05:53;13.77;;;9.67;;
6344;SDS011;3205;42.666;23.264;2022-10-16T04:08:21;15.43;;;9.53;;
6344;SDS011;3205;42.666;23.264;2022-10-16T04:10:48;16.17;;;10.00;;
6344;SDS011;3205;42.666;23.264;2022-10-16T04:13:15;17.07;;;9.93;;
6344;SDS011;3205;42.666;23.264;2022-10-16T04:15:42;18.13;;;9.33;;
6344;SDS011;3205;42.666;23.264;2022-10-16T04:18:10;16.43;;;9.70;;
6344;SDS011;3205;42.666;23.264;2022-10-16T04:20:37;13.90;;;9.60;;
6344;SDS011;3205;42.666;23.264;2022-10-16T04:23:04;11.67;;;9.13;;
6344;SDS011;3205;42.666;23.264;2022-10-16T04:25:32;17.87;;;9.17;;
6344;SDS011;3205;42.666;23.264;2022-10-16T04:27:59;10.53;;;8.20;;
6344;SDS011;3205;42.666;23.264;2022-10-16T04:30:26;16.40;;;8.27;;
6344;SDS011;3205;42.666;23.264;2022-10-16T04:32:53;14.63;;;8.30;;
6344;SDS011;3205;42.666;23.264;2022-10-16T04:35:20;14.20;;;8.20;;
6344;SDS011;3205;42.666;23.264;2022-10-16T04:37:48;11.37;;;8.70;;
6344;SDS011;3205;42.666;23.264;2022-10-16T04:40:15;20.47;;;9.43;;
6344;SDS011;3205;42.666;23.264;2022-10-16T04:42:43;14.30;;;8.87;;
6344;SDS011;3205;42.666;23.264;2022-10-16T04:45:10;14.53;;;8.83;;
6344;SDS011;3205;42.666;23.264;2022-10-16T04:47:37;18.30;;;9.67;;
6344;SDS011;3205;42.666;23.264;2022-10-16T04:50:05;14.50;;;9.33;;
6344;SDS011;3205;42.666;23.264;2022-10-16T04:52:32;21.93;;;9.97;;
6344;SDS011;3205;42.666;23.264;2022-10-16T04:54:59;18.00;;;9.93;;
6344;SDS011;3205;42.666;23.264;2022-10-16T04:57:27;17.03;;;10.27;;
6344;SDS011;3205;42.666;23.264;2022-10-16T04:59:56;18.83;;;10.37;;
6344;SDS011;3205;42.666;23.264;2022-10-16T05:02:22;19.40;;;10.47;;
6344;SDS011;3205;42.666;23.264;2022-10-16T05:04:50;24.67;;;11.00;;
6344;SDS011;3205;42.666;23.264;2022-10-16T05:07:17;15.23;;;10.10;;
6344;SDS011;3205;42.666;23.264;2022-10-16T05:09:44;22.77;;;11.37;;
6344;SDS011;3205;42.666;23.264;2022-10-16T05:12:11;22.43;;;11.57;;
6344;SDS011;3205;42.666;23.264;2022-10-16T05:14:38;21.50;;;11.37;;
6344;SDS011;3205;42.666;23.264;2022-10-16T05:17:06;20.27;;;11.03;;
6344;SDS011;3205;42.666;23.264;2022-10-16T05:19:33;33.93;;;11.10;;
6344;SDS011;3205;42.666;23.264;2022-10-16T05:22:00;14.70;;;10.70;;
6344;SDS011;3205;42.666;23.264;2022-10-16T05:24:27;26.67;;;11.40;;
6344;SDS011;3205;42.666;23.264;2022-10-16T05:26:54;21.20;;;11.53;;
6344;SDS011;3205;42.666;23.264;2022-10-16T05:29:21;22.47;;;11.30;;
6344;SDS011;3205;42.666;23.264;2022-10-16T05:31:49;18.87;;;10.30;;
6344;SDS011;3205;42.666;23.264;2022-10-16T05:34:19;21.47;;;11.20;;
6344;SDS011;3205;42.666;23.264;2022-10-16T05:36:45;17.93;;;11.07;;
6344;SDS011;3205;42.666;23.264;2022-10-16T05:39:13;18.67;;;10.23;;
6344;SDS011;3205;42.666;23.264;2022-10-16T05:41:41;14.23;;;9.07;;
6344;SDS011;3205;42.666;23.264;2022-10-16T05:44:08;14.80;;;8.13;;
6344;SDS011;3205;42.666;23.264;2022-10-16T05:46:35;13.73;;;8.03;;
6344;SDS011;3205;42.666;23.264;2022-10-16T05:49:02;27.42;;;8.95;;
6344;SDS011;3205;42.666;23.264;2022-10-16T05:51:30;20.33;;;9.43;;
6344;SDS011;3205;42.666;23.264;2022-10-16T05:53:57;19.48;;;8.63;;
6344;SDS011;3205;42.666;23.264;2022-10-16T05:56:24;27.35;;;12.73;;
6344;SDS011;3205;42.666;23.264;2022-10-16T05:58:50;15.40;;;9.80;;
6344;SDS011;3205;42.666;23.264;2022-10-16T06:01:18;21.40;;;8.98;;
6344;SDS011;3205;42.666;23.264;2022-10-16T06:03:49;15.82;;;8.85;;
6344;SDS011;3205;42.666;23.264;2022-10-16T06:06:17;16.45;;;9.27;;
6344;SDS011;3205;42.666;23.264;2022-10-16T06:08:47;16.15;;;9.55;;
6344;SDS011;3205;42.666;23.264;2022-10-16T06:11:17;16.70;;;10.30;;
6344;SDS011;3205;42.666;23.264;2022-10-16T06:13:48;16.77;;;10.10;;
6344;SDS011;3205;42.666;23.264;2022-10-16T06:16:15;18.50;;;9.60;;
6344;SDS011;3205;42.666;23.264;2022-10-16T06:18:42;14.60;;;8.95;;
6344;SDS011;3205;42.666;23.264;2022-10-16T06:21:10;11.65;;;9.07;;
6344;SDS011;3205;42.666;23.264;2022-10-16T06:23:38;19.77;;;9.85;;
6344;SDS011;3205;42.666;23.264;2022-10-16T06:26:07;17.20;;;11.23;;
6344;SDS011;3205;42.666;23.264;2022-10-16T06:28:35;16.65;;;10.85;;
6344;SDS011;3205;42.666;23.264;2022-10-16T06:31:02;18.27;;;10.40;;
6344;SDS011;3205;42.666;23.264;2022-10-16T06:33:30;17.30;;;8.95;;
6344;SDS011;3205;42.666;23.264;2022-10-16T06:36:00;12.88;;;9.30;;
6344;SDS011;3205;42.666;23.264;2022-10-16T06:38:27;18.15;;;9.30;;
6344;SDS011;3205;42.666;23.264;2022-10-16T06:40:54;11.63;;;8.95;;
6344;SDS011;3205;42.666;23.264;2022-10-16T06:43:22;14.90;;;9.20;;
6344;SDS011;3205;42.666;23.264;2022-10-16T06:45:52;12.35;;;7.88;;
6344;SDS011;3205;42.666;23.264;2022-10-16T06:48:19;11.07;;;8.18;;
6344;SDS011;3205;42.666;23.264;2022-10-16T06:50:54;15.50;;;8.45;;
6344;SDS011;3205;42.666;23.264;2022-10-16T06:53:23;14.27;;;7.97;;
6344;SDS011;3205;42.666;23.264;2022-10-16T06:55:50;10.05;;;7.60;;
6344;SDS011;3205;42.666;23.264;2022-10-16T06:58:16;17.13;;;7.95;;
6344;SDS011;3205;42.666;23.264;2022-10-16T07:00:45;12.80;;;7.72;;
6344;SDS011;3205;42.666;23.264;2022-10-16T07:03:12;18.13;;;7.72;;
6344;SDS011;3205;42.666;23.264;2022-10-16T07:05:40;13.50;;;8.88;;
6344;SDS011;3205;42.666;23.264;2022-10-16T07:08:07;9.82;;;8.10;;
6344;SDS011;3205;42.666;23.264;2022-10-16T07:10:35;13.23;;;10.15;;
6344;SDS011;3205;42.666;23.264;2022-10-16T07:13:02;13.95;;;10.50;;
6344;SDS011;3205;42.666;23.264;2022-10-16T07:15:29;11.27;;;7.75;;
6344;SDS011;3205;42.666;23.264;2022-10-16T07:17:57;9.82;;;7.75;;
6344;SDS011;3205;42.666;23.264;2022-10-16T07:20:24;15.13;;;7.43;;
6344;SDS011;3205;42.666;23.264;2022-10-16T07:22:51;12.75;;;7.65;;
6344;SDS011;3205;42.666;23.264;2022-10-16T07:25:18;12.98;;;8.27;;
6344;SDS011;3205;42.666;23.264;2022-10-16T07:27:45;14.60;;;9.25;;
6344;SDS011;3205;42.666;23.264;2022-10-16T07:30:12;11.00;;;8.18;;
6344;SDS011;3205;42.666;23.264;2022-10-16T07:32:39;14.68;;;8.07;;
6344;SDS011;3205;42.666;23.264;2022-10-16T07:35:07;12.32;;;8.80;;
6344;SDS011;3205;42.666;23.264;2022-10-16T07:37:34;10.25;;;6.78;;
6344;SDS011;3205;42.666;23.264;2022-10-16T07:40:01;17.20;;;8.50;;
6344;SDS011;3205;42.666;23.264;2022-10-16T07:42:28;16.25;;;7.38;;
6344;SDS011;3205;42.666;23.264;2022-10-16T07:44:55;9.30;;;6.97;;
6344;SDS011;3205;42.666;23.264;2022-10-16T07:47:22;9.98;;;7.47;;
6344;SDS011;3205;42.666;23.264;2022-10-16T07:49:49;10.07;;;7.22;;
6344;SDS011;3205;42.666;23.264;2022-10-16T07:52:17;9.93;;;7.15;;
6344;SDS011;3205;42.666;23.264;2022-10-16T07:54:44;9.30;;;6.97;;
6344;SDS011;3205;42.666;23.264;2022-10-16T07:57:11;8.52;;;7.55;;
6344;SDS011;3205;42.666;23.264;2022-10-16T07:59:43;8.77;;;7.85;;
6344;SDS011;3205;42.666;23.264;2022-10-16T08:02:10;14.25;;;8.02;;
6344;SDS011;3205;42.666;23.264;2022-10-16T08:04:37;12.65;;;7.18;;
6344;SDS011;3205;42.666;23.264;2022-10-16T08:07:04;10.25;;;7.50;;
6344;SDS011;3205;42.666;23.264;2022-10-16T08:09:33;10.73;;;8.18;;
6344;SDS011;3205;42.666;23.264;2022-10-16T08:12:00;13.00;;;8.25;;
6344;SDS011;3205;42.666;23.264;2022-10-16T08:14:29;10.90;;;7.63;;
6344;SDS011;3205;42.666;23.264;2022-10-16T08:16:56;10.38;;;8.25;;
6344;SDS011;3205;42.666;23.264;2022-10-16T08:19:22;10.23;;;8.70;;
6344;SDS011;3205;42.666;23.264;2022-10-16T08:21:49;13.73;;;8.15;;
6344;SDS011;3205;42.666;23.264;2022-10-16T08:24:16;9.88;;;8.13;;
6344;SDS011;3205;42.666;23.264;2022-10-16T08:26:44;8.32;;;7.47;;
6344;SDS011;3205;42.666;23.264;2022-10-16T08:29:12;10.43;;;7.95;;
6344;SDS011;3205;42.666;23.264;2022-10-16T08:31:40;11.02;;;7.95;;
6344;SDS011;3205;42.666;23.264;2022-10-16T08:34:07;10.93;;;7.40;;
6344;SDS011;3205;42.666;23.264;2022-10-16T08:36:33;11.10;;;7.10;;
6344;SDS011;3205;42.666;23.264;2022-10-16T08:39:00;8.00;;;7.15;;
6344;SDS011;3205;42.666;23.264;2022-10-16T08:41:42;10.25;;;6.15;;
6344;SDS011;3205;42.666;23.264;2022-10-16T08:44:48;10.27;;;6.30;;
6344;SDS011;3205;42.666;23.264;2022-10-16T08:47:46;11.13;;;6.00;;
6344;SDS011;3205;42.666;23.264;2022-10-16T08:50:18;10.02;;;6.53;;
6344;SDS011;3205;42.666;23.264;2022-10-16T08:52:53;10.45;;;5.60;;
6344;SDS011;3205;42.666;23.264;2022-10-16T08:55:31;6.70;;;5.18;;
6344;SDS011;3205;42.666;23.264;2022-10-16T08:58:09;6.35;;;4.68;;
6344;SDS011;3205;42.666;23.264;2022-10-16T09:00:38;5.65;;;4.30;;
6344;SDS011;3205;42.666;23.264;2022-10-16T09:03:07;10.52;;;4.40;;
6344;SDS011;3205;42.666;23.264;2022-10-16T09:08:36;4.13;;;3.55;;
6344;SDS011;3205;42.666;23.264;2022-10-16T09:11:19;8.82;;;3.88;;
6344;SDS011;3205;42.666;23.264;2022-10-16T09:13:58;4.88;;;4.47;;
6344;SDS011;3205;42.666;23.264;2022-10-16T09:16:33;5.45;;;3.65;;
6344;SDS011;3205;42.666;23.264;2022-10-16T09:19:04;3.70;;;3.40;;
6344;SDS011;3205;42.666;23.264;2022-10-16T09:21:40;9.95;;;4.45;;
6344;SDS011;3205;42.666;23.264;2022-10-16T09:24:10;3.28;;;2.97;;
6344;SDS011;3205;42.666;23.264;2022-10-16T09:26:40;7.72;;;4.70;;
6344;SDS011;3205;42.666;23.264;2022-10-16T09:29:10;5.53;;;3.72;;
6344;SDS011;3205;42.666;23.264;2022-10-16T09:31:39;6.00;;;3.33;;
6344;SDS011;3205;42.666;23.264;2022-10-16T09:34:08;5.30;;;3.25;;
6344;SDS011;3205;42.666;23.264;2022-10-16T09:36:44;3.70;;;3.40;;
6344;SDS011;3205;42.666;23.264;2022-10-16T09:39:12;4.35;;;3.50;;
6344;SDS011;3205;42.666;23.264;2022-10-16T09:41:39;6.93;;;3.38;;
6344;SDS011;3205;42.666;23.264;2022-10-16T09:44:16;4.20;;;3.45;;
6344;SDS011;3205;42.666;23.264;2022-10-16T09:46:47;4.72;;;3.85;;
6344;SDS011;3205;42.666;23.264;2022-10-16T09:49:20;6.13;;;4.60;;
6344;SDS011;3205;42.666;23.264;2022-10-16T09:51:48;5.10;;;3.83;;
6344;SDS011;3205;42.666;23.264;2022-10-16T09:54:16;7.63;;;3.65;;
6344;SDS011;3205;42.666;23.264;2022-10-16T09:56:44;6.20;;;3.42;;
6344;SDS011;3205;42.666;23.264;2022-10-16T09:59:16;5.35;;;3.53;;
6344;SDS011;3205;42.666;23.264;2022-10-16T10:01:44;6.45;;;3.88;;
6344;SDS011;3205;42.666;23.264;2022-10-16T10:04:13;6.35;;;3.83;;
6344;SDS011;3205;42.666;23.264;2022-10-16T10:06:41;5.55;;;3.45;;
6344;SDS011;3205;42.666;23.264;2022-10-16T10:09:15;4.28;;;3.25;;
6344;SDS011;3205;42.666;23.264;2022-10-16T10:11:50;5.78;;;3.47;;
6344;SDS011;3205;42.666;23.264;2022-10-16T10:14:24;6.72;;;3.53;;
6344;SDS011;3205;42.666;23.264;2022-10-16T10:17:06;6.90;;;3.28;;
6344;SDS011;3205;42.666;23.264;2022-10-16T10:19:40;3.35;;;3.00;;
6344;SDS011;3205;42.666;23.264;2022-10-16T10:22:15;3.80;;;3.50;;
6344;SDS011;3205;42.666;23.264;2022-10-16T10:24:55;4.80;;;3.33;;
6344;SDS011;3205;42.666;23.264;2022-10-16T10:27:39;8.73;;;3.53;;
6344;SDS011;3205;42.666;23.264;2022-10-16T10:30:16;5.30;;;2.90;;
6344;SDS011;3205;42.666;23.264;2022-10-16T10:32:51;8.82;;;3.60;;
6344;SDS011;3205;42.666;23.264;2022-10-16T10:35:30;11.43;;;4.20;;
6344;SDS011;3205;42.666;23.264;2022-10-16T10:38:09;3.95;;;2.90;;
6344;SDS011;3205;42.666;23.264;2022-10-16T10:40:49;7.65;;;3.65;;
6344;SDS011;3205;42.666;23.264;2022-10-16T10:43:24;3.22;;;3.03;;
6344;SDS011;3205;42.666;23.264;2022-10-16T10:46:07;5.07;;;3.47;;
6344;SDS011;3205;42.666;23.264;2022-10-16T10:48:45;3.17;;;2.88;;
6344;SDS011;3205;42.666;23.264;2022-10-16T10:51:23;4.05;;;2.80;;
6344;SDS011;3205;42.666;23.264;2022-10-16T10:54:00;5.72;;;2.95;;
6344;SDS011;3205;42.666;23.264;2022-10-16T10:56:43;5.07;;;2.75;;
6344;SDS011;3205;42.666;23.264;2022-10-16T10:59:33;3.47;;;2.83;;
6344;SDS011;3205;42.666;23.264;2022-10-16T11:02:31;5.47;;;3.30;;
6344;SDS011;3205;42.666;23.264;2022-10-16T11:05:22;3.47;;;3.17;;
6344;SDS011;3205;42.666;23.264;2022-10-16T11:08:07;6.68;;;3.88;;
6344;SDS011;3205;42.666;23.264;2022-10-16T11:10:40;4.95;;;3.22;;
6344;SDS011;3205;42.666;23.264;2022-10-16T11:13:16;4.03;;;3.13;;
6344;SDS011;3205;42.666;23.264;2022-10-16T11:15:48;3.00;;;2.75;;
6344;SDS011;3205;42.666;23.264;2022-10-16T11:18:22;3.67;;;3.38;;
6344;SDS011;3205;42.666;23.264;2022-10-16T11:20:54;3.08;;;2.78;;
6344;SDS011;3205;42.666;23.264;2022-10-16T11:23:25;3.38;;;2.92;;
6344;SDS011;3205;42.666;23.264;2022-10-16T11:25:56;2.92;;;2.60;;
6344;SDS011;3205;42.666;23.264;2022-10-16T11:28:27;3.13;;;2.83;;
6344;SDS011;3205;42.666;23.264;2022-10-16T11:31:00;2.80;;;2.60;;
6344;SDS011;3205;42.666;23.264;2022-10-16T11:33:36;2.95;;;2.75;;
6344;SDS011;3205;42.666;23.264;2022-10-16T11:36:09;3.80;;;3.00;;
6344;SDS011;3205;42.666;23.264;2022-10-16T11:38:42;2.88;;;2.53;;
6344;SDS011;3205;42.666;23.264;2022-10-16T11:41:14;3.88;;;2.95;;
6344;SDS011;3205;42.666;23.264;2022-10-16T11:43:49;4.97;;;2.78;;
6344;SDS011;3205;42.666;23.264;2022-10-16T11:46:24;3.70;;;2.83;;
6344;SDS011;3205;42.666;23.264;2022-10-16T11:48:56;8.07;;;3.22;;
6344;SDS011;3205;42.666;23.264;2022-10-16T11:51:31;10.35;;;6.07;;
6344;SDS011;3205;42.666;23.264;2022-10-16T11:54:04;5.88;;;2.95;;
6344;SDS011;3205;42.666;23.264;2022-10-16T11:56:41;3.47;;;2.65;;
6344;SDS011;3205;42.666;23.264;2022-10-16T11:59:12;6.47;;;3.35;;
6344;SDS011;3205;42.666;23.264;2022-10-16T12:01:47;7.32;;;3.55;;
6344;SDS011;3205;42.666;23.264;2022-10-16T12:04:22;3.25;;;2.95;;
6344;SDS011;3205;42.666;23.264;2022-10-16T12:06:59;7.03;;;3.55;;
6344;SDS011;3205;42.666;23.264;2022-10-16T12:09:32;3.95;;;2.92;;
6344;SDS011;3205;42.666;23.264;2022-10-16T12:12:03;5.43;;;3.05;;
6344;SDS011;3205;42.666;23.264;2022-10-16T12:14:36;3.30;;;2.97;;
6344;SDS011;3205;42.666;23.264;2022-10-16T12:19:58;3.78;;;2.70;;
6344;SDS011;3205;42.666;23.264;2022-10-16T12:22:27;3.75;;;2.10;;
6344;SDS011;3205;42.666;23.264;2022-10-16T12:24:56;4.93;;;2.80;;
6344;SDS011;3205;42.666;23.264;2022-10-16T12:27:24;5.13;;;3.15;;
6344;SDS011;3205;42.666;23.264;2022-10-16T12:29:55;7.65;;;3.33;;
6344;SDS011;3205;42.666;23.264;2022-10-16T12:32:27;2.72;;;2.53;;
6344;SDS011;3205;42.666;23.264;2022-10-16T12:34:58;4.43;;;3.08;;
6344;SDS011;3205;42.666;23.264;2022-10-16T12:37:27;7.32;;;3.00;;
6344;SDS011;3205;42.666;23.264;2022-10-16T12:39:58;7.57;;;3.30;;
6344;SDS011;3205;42.666;23.264;2022-10-16T12:42:33;3.35;;;2.55;;
6344;SDS011;3205;42.666;23.264;2022-10-16T12:45:01;3.97;;;2.67;;
6344;SDS011;3205;42.666;23.264;2022-10-16T12:47:47;4.57;;;2.83;;
6344;SDS011;3205;42.666;23.264;2022-10-16T12:50:32;6.82;;;2.80;;
6344;SDS011;3205;42.666;23.264;2022-10-16T12:53:01;8.77;;;3.22;;
6344;SDS011;3205;42.666;23.264;2022-10-16T12:55:33;3.13;;;2.88;;
6344;SDS011;3205;42.666;23.264;2022-10-16T12:58:20;2.80;;;2.60;;
6344;SDS011;3205;42.666;23.264;2022-10-16T13:01:02;5.93;;;2.67;;
6344;SDS011;3205;42.666;23.264;2022-10-16T13:03:57;5.85;;;2.70;;
6344;SDS011;3205;42.666;23.264;2022-10-16T13:06:45;3.78;;;3.00;;
6344;SDS011;3205;42.666;23.264;2022-10-16T13:09:29;4.50;;;2.70;;
6344;SDS011;3205;42.666;23.264;2022-10-16T13:15:16;4.70;;;2.85;;
6344;SDS011;3205;42.666;23.264;2022-10-16T13:17:54;4.00;;;2.58;;
6344;SDS011;3205;42.666;23.264;2022-10-16T13:20:29;3.33;;;2.70;;
6344;SDS011;3205;42.666;23.264;2022-10-16T13:23:05;3.53;;;2.45;;
6344;SDS011;3205;42.666;23.264;2022-10-16T13:25:45;6.10;;;2.80;;
6344;SDS011;3205;42.666;23.264;2022-10-16T13:28:27;4.20;;;2.90;;
6344;SDS011;3205;42.666;23.264;2022-10-16T13:30:57;4.57;;;3.38;;
6344;SDS011;3205;42.666;23.264;2022-10-16T13:33:27;5.20;;;2.80;;
6344;SDS011;3205;42.666;23.264;2022-10-16T13:35:58;3.15;;;2.85;;
6344;SDS011;3205;42.666;23.264;2022-10-16T13:38:27;5.38;;;2.67;;
6344;SDS011;3205;42.666;23.264;2022-10-16T13:40:56;3.33;;;2.75;;
6344;SDS011;3205;42.666;23.264;2022-10-16T13:43:26;3.58;;;2.65;;
6344;SDS011;3205;42.666;23.264;2022-10-16T13:45:59;4.57;;;2.58;;
6344;SDS011;3205;42.666;23.264;2022-10-16T13:48:28;4.47;;;2.63;;
6344;SDS011;3205;42.666;23.264;2022-10-16T13:50:59;3.58;;;2.70;;
6344;SDS011;3205;42.666;23.264;2022-10-16T13:53:29;5.55;;;3.08;;
6344;SDS011;3205;42.666;23.264;2022-10-16T13:55:57;6.20;;;2.58;;
6344;SDS011;3205;42.666;23.264;2022-10-16T13:58:25;3.83;;;2.42;;
6344;SDS011;3205;42.666;23.264;2022-10-16T14:00:53;3.60;;;2.40;;
6344;SDS011;3205;42.666;23.264;2022-10-16T14:03:21;4.60;;;2.67;;
6344;SDS011;3205;42.666;23.264;2022-10-16T14:05:49;3.20;;;2.72;;
6344;SDS011;3205;42.666;23.264;2022-10-16T14:08:18;4.40;;;3.00;;
6344;SDS011;3205;42.666;23.264;2022-10-16T14:10:48;10.68;;;2.88;;
6344;SDS011;3205;42.666;23.264;2022-10-16T14:13:17;6.65;;;3.08;;
6344;SDS011;3205;42.666;23.264;2022-10-16T14:15:49;5.70;;;2.83;;
6344;SDS011;3205;42.666;23.264;2022-10-16T14:18:18;4.68;;;3.08;;
6344;SDS011;3205;42.666;23.264;2022-10-16T14:20:48;6.25;;;2.78;;
6344;SDS011;3205;42.666;23.264;2022-10-16T14:23:20;5.47;;;3.05;;
6344;SDS011;3205;42.666;23.264;2022-10-16T14:25:52;7.43;;;3.28;;
6344;SDS011;3205;42.666;23.264;2022-10-16T14:28:20;7.75;;;3.30;;
6344;SDS011;3205;42.666;23.264;2022-10-16T14:30:49;5.63;;;2.78;;
6344;SDS011;3205;42.666;23.264;2022-10-16T14:33:22;2.97;;;2.70;;
6344;SDS011;3205;42.666;23.264;2022-10-16T14:36:00;4.75;;;3.58;;
6344;SDS011;3205;42.666;23.264;2022-10-16T14:38:30;2.88;;;2.30;;
6344;SDS011;3205;42.666;23.264;2022-10-16T14:40:59;3.65;;;2.53;;
6344;SDS011;3205;42.666;23.264;2022-10-16T14:43:29;5.53;;;2.75;;
6344;SDS011;3205;42.666;23.264;2022-10-16T14:45:59;3.20;;;2.63;;
6344;SDS011;3205;42.666;23.264;2022-10-16T14:48:27;4.43;;;2.63;;
6344;SDS011;3205;42.666;23.264;2022-10-16T14:50:54;3.85;;;3.15;;
6344;SDS011;3205;42.666;23.264;2022-10-16T14:53:21;4.30;;;2.85;;
6344;SDS011;3205;42.666;23.264;2022-10-16T14:55:48;3.38;;;2.65;;
6344;SDS011;3205;42.666;23.264;2022-10-16T14:58:18;4.00;;;3.30;;
6344;SDS011;3205;42.666;23.264;2022-10-16T15:00:48;3.92;;;2.65;;
6344;SDS011;3205;42.666;23.264;2022-10-16T15:03:15;7.25;;;2.90;;
6344;SDS011;3205;42.666;23.264;2022-10-16T15:05:42;4.50;;;3.00;;
6344;SDS011;3205;42.666;23.264;2022-10-16T15:08:09;6.57;;;2.78;;
6344;SDS011;3205;42.666;23.264;2022-10-16T15:10:38;6.45;;;2.63;;
6344;SDS011;3205;42.666;23.264;2022-10-16T15:13:11;6.07;;;2.60;;
6344;SDS011;3205;42.666;23.264;2022-10-16T15:15:42;3.58;;;2.65;;
6344;SDS011;3205;42.666;23.264;2022-10-16T15:18:10;5.85;;;3.20;;
6344;SDS011;3205;42.666;23.264;2022-10-16T15:20:37;7.38;;;3.42;;